sensor_id;sensor_type;location;lat;lon;timestamp;pressure;altitude;pressure_sealevel;temperature;humidity
9419;BME280;4748;50.802;7.132;2022-12-29T00:02:17;99918.06;;;12.25;100.00
9419;BME280;4748;50.802;7.132;2022-12-29T00:04:43;99907.66;;;12.28;100.00
9419;BME280;4748;50.802;7.132;2022-12-29T00:07:09;99908.47;;;12.29;100.00
9419;BME280;4748;50.802;7.132;2022-12-29T00:09:34;99891.56;;;12.28;100.00
9419;BME280;4748;50.802;7.132;2022-12-29T00:12:01;99889.13;;;12.27;100.00
9419;BME280;4748;50.802;7.132;2022-12-29T00:14:27;99889.91;;;12.27;100.00
9419;BME280;4748;50.802;7.132;2022-12-29T00:17:11;99884.88;;;12.31;100.00
9419;BME280;4748;50.802;7.132;2022-12-29T00:19:36;99887.31;;;12.32;100.00
9419;BME280;4748;50.802;7.132;2022-12-29T00:22:20;99889.41;;;12.30;100.00
9419;BME280;4748;50.802;7.132;2022-12-29T00:25:04;99883.28;;;12.35;100.00
9419;BME280;4748;50.802;7.132;2022-12-29T00:27:31;99885.44;;;12.33;100.00
9419;BME280;4748;50.802;7.132;2022-12-29T00:30:18;99895.91;;;12.34;100.00
9419;BME280;4748;50.802;7.132;2022-12-29T00:33:29;99884.69;;;12.37;100.00
9419;BME280;4748;50.802;7.132;2022-12-29T00:36:16;99871.84;;;12.39;100.00
9419;BME280;4748;50.802;7.132;2022-12-29T00:38:48;99883.38;;;12.40;100.00
9419;BME280;4748;50.802;7.132;2022-12-29T00:41:34;99869.94;;;12.40;100.00
9419;BME280;4748;50.802;7.132;2022-12-29T00:44:17;99871.84;;;12.39;100.00
9419;BME280;4748;50.802;7.132;2022-12-29T00:46:43;99864.88;;;12.43;100.00
9419;BME280;4748;50.802;7.132;2022-12-29T00:49:11;99857.41;;;12.45;100.00
9419;BME280;4748;50.802;7.132;2022-12-29T00:51:58;99843.72;;;12.47;100.00
9419;BME280;4748;50.802;7.132;2022-12-29T00:54:23;99852.84;;;12.46;100.00
9419;BME280;4748;50.802;7.132;2022-12-29T00:56:50;99864.38;;;12.46;100.00
9419;BME280;4748;50.802;7.132;2022-12-29T00:59:17;99858.78;;;12.48;100.00
9419;BME280;4748;50.802;7.132;2022-12-29T01:01:43;99872.22;;;12.48;100.00
9419;BME280;4748;50.802;7.132;2022-12-29T01:04:09;99862.00;;;12.50;100.00
9419;BME280;4748;50.802;7.132;2022-12-29T01:06:37;99872.50;;;12.51;100.00
9419;BME280;4748;50.802;7.132;2022-12-29T01:09:03;99856.94;;;12.53;100.00
9419;BME280;4748;50.802;7.132;2022-12-29T01:11:47;99860.72;;;12.52;100.00
9419;BME280;4748;50.802;7.132;2022-12-29T01:14:13;99871.44;;;12.52;100.00
9419;BME280;4748;50.802;7.132;2022-12-29T01:16:38;99861.47;;;12.48;100.00
9419;BME280;4748;50.802;7.132;2022-12-29T01:19:03;99855.34;;;12.52;100.00
9419;BME280;4748;50.802;7.132;2022-12-29T01:21:29;99869.53;;;12.48;100.00
9419;BME280;4748;50.802;7.132;2022-12-29T01:23:54;99865.81;;;12.54;100.00
9419;BME280;4748;50.802;7.132;2022-12-29T01:26:20;99859.38;;;12.55;100.00
9419;BME280;4748;50.802;7.132;2022-12-29T01:28:46;99857.25;;;12.57;100.00
9419;BME280;4748;50.802;7.132;2022-12-29T01:31:13;99862.38;;;12.58;100.00
9419;BME280;4748;50.802;7.132;2022-12-29T01:33:39;99866.44;;;12.61;100.00
9419;BME280;4748;50.802;7.132;2022-12-29T01:36:07;99862.69;;;12.62;100.00
9419;BME280;4748;50.802;7.132;2022-12-29T01:38:34;99872.91;;;12.65;100.00
9419;BME280;4748;50.802;7.132;2022-12-29T01:41:00;99866.22;;;12.67;100.00
9419;BME280;4748;50.802;7.132;2022-12-29T01:46:38;99871.72;;;12.77;100.00
9419;BME280;4748;50.802;7.132;2022-12-29T01:49:23;99870.94;;;12.81;100.00
9419;BME280;4748;50.802;7.132;2022-12-29T01:51:57;99875.25;;;12.82;100.00
9419;BME280;4748;50.802;7.132;2022-12-29T01:54:31;99874.03;;;12.90;100.00
9419;BME280;4748;50.802;7.132;2022-12-29T01:56:59;99876.72;;;12.90;100.00
9419;BME280;4748;50.802;7.132;2022-12-29T01:59:30;99877.06;;;12.98;100.00
9419;BME280;4748;50.802;7.132;2022-12-29T02:01:56;99872.19;;;12.95;100.00
9419;BME280;4748;50.802;7.132;2022-12-29T02:04:23;99868.19;;;12.98;100.00
9419;BME280;4748;50.802;7.132;2022-12-29T02:06:53;99857.72;;;12.96;100.00
9419;BME280;4748;50.802;7.132;2022-12-29T02:09:20;99850.72;;;12.95;100.00
9419;BME280;4748;50.802;7.132;2022-12-29T02:11:46;99847.47;;;12.93;100.00
9419;BME280;4748;50.802;7.132;2022-12-29T02:14:13;99843.97;;;12.93;100.00
9419;BME280;4748;50.802;7.132;2022-12-29T02:19:55;99822.59;;;12.81;100.00
9419;BME280;4748;50.802;7.132;2022-12-29T02:36:24;99812.06;;;13.01;100.00
9419;BME280;4748;50.802;7.132;2022-12-29T02:39:07;99819.31;;;13.01;100.00
9419;BME280;4748;50.802;7.132;2022-12-29T02:41:56;99812.06;;;13.01;100.00
9419;BME280;4748;50.802;7.132;2022-12-29T02:47:26;99819.59;;;12.99;100.00
9419;BME280;4748;50.802;7.132;2022-12-29T02:50:13;99802.88;;;12.97;100.00
9419;BME280;4748;50.802;7.132;2022-12-29T02:52:48;99803.13;;;12.91;100.00
9419;BME280;4748;50.802;7.132;2022-12-29T02:55:15;99806.31;;;12.88;100.00
9419;BME280;4748;50.802;7.132;2022-12-29T02:57:40;99807.69;;;12.90;100.00
9419;BME280;4748;50.802;7.132;2022-12-29T03:00:12;99804.44;;;12.88;100.00
9419;BME280;4748;50.802;7.132;2022-12-29T03:05:23;99798.50;;;12.86;100.00
9419;BME280;4748;50.802;7.132;2022-12-29T03:08:18;99794.19;;;12.85;100.00
9419;BME280;4748;50.802;7.132;2022-12-29T03:11:04;99788.31;;;12.88;100.00
9419;BME280;4748;50.802;7.132;2022-12-29T03:13:49;99790.47;;;12.86;100.00
9419;BME280;4748;50.802;7.132;2022-12-29T03:16:53;99780.75;;;12.85;100.00
9419;BME280;4748;50.802;7.132;2022-12-29T03:19:32;99763.50;;;12.81;100.00
9419;BME280;4748;50.802;7.132;2022-12-29T03:22:13;99768.88;;;12.81;100.00
9419;BME280;4748;50.802;7.132;2022-12-29T03:24:55;99772.41;;;12.82;100.00
9419;BME280;4748;50.802;7.132;2022-12-29T03:27:36;99768.06;;;12.81;100.00
9419;BME280;4748;50.802;7.132;2022-12-29T03:30:05;99770.75;;;12.81;100.00
9419;BME280;4748;50.802;7.132;2022-12-29T03:32:36;99766.16;;;12.76;100.00
9419;BME280;4748;50.802;7.132;2022-12-29T03:35:04;99777.19;;;12.80;100.00
9419;BME280;4748;50.802;7.132;2022-12-29T03:37:40;99771.31;;;12.83;100.00
9419;BME280;4748;50.802;7.132;2022-12-29T03:40:06;99758.22;;;12.86;100.00
9419;BME280;4748;50.802;7.132;2022-12-29T03:42:35;99761.41;;;12.83;100.00
9419;BME280;4748;50.802;7.132;2022-12-29T03:45:01;99769.00;;;12.91;100.00
9419;BME280;4748;50.802;7.132;2022-12-29T03:47:26;99758.56;;;12.95;100.00
9419;BME280;4748;50.802;7.132;2022-12-29T03:49:52;99762.59;;;12.97;100.00
9419;BME280;4748;50.802;7.132;2022-12-29T03:52:18;99773.06;;;12.94;100.00
9419;BME280;4748;50.802;7.132;2022-12-29T03:54:43;99751.31;;;12.95;100.00
9419;BME280;4748;50.802;7.132;2022-12-29T03:57:10;99753.19;;;12.95;100.00
9419;BME280;4748;50.802;7.132;2022-12-29T03:59:36;99748.59;;;12.90;100.00
9419;BME280;4748;50.802;7.132;2022-12-29T04:02:02;99752.88;;;12.91;100.00
9419;BME280;4748;50.802;7.132;2022-12-29T04:04:27;99755.03;;;12.89;100.00
9419;BME280;4748;50.802;7.132;2022-12-29T04:06:53;99739.69;;;12.90;100.00
9419;BME280;4748;50.802;7.132;2022-12-29T04:09:18;99728.09;;;12.84;100.00
9419;BME280;4748;50.802;7.132;2022-12-29T04:11:43;99727.72;;;12.76;100.00
9419;BME280;4748;50.802;7.132;2022-12-29T04:14:09;99738.72;;;12.74;100.00
9419;BME280;4748;50.802;7.132;2022-12-29T04:16:34;99742.97;;;12.66;100.00
9419;BME280;4748;50.802;7.132;2022-12-29T04:19:01;99738.97;;;12.68;100.00
9419;BME280;4748;50.802;7.132;2022-12-29T04:21:27;99740.78;;;12.63;100.00
9419;BME280;4748;50.802;7.132;2022-12-29T04:23:52;99740.25;;;12.61;100.00
9419;BME280;4748;50.802;7.132;2022-12-29T04:26:18;99732.47;;;12.64;100.00
9419;BME280;4748;50.802;7.132;2022-12-29T04:28:43;99723.63;;;12.64;100.00
9419;BME280;4748;50.802;7.132;2022-12-29T04:31:09;99735.97;;;12.65;100.00
9419;BME280;4748;50.802;7.132;2022-12-29T04:33:34;99701.56;;;12.62;100.00
9419;BME280;4748;50.802;7.132;2022-12-29T04:35:59;99703.72;;;12.60;100.00
9419;BME280;4748;50.802;7.132;2022-12-29T04:38:25;99707.69;;;12.57;100.00
9419;BME280;4748;50.802;7.132;2022-12-29T04:40:51;99682.44;;;12.53;100.00
9419;BME280;4748;50.802;7.132;2022-12-29T04:43:16;99684.59;;;12.56;100.00
9419;BME280;4748;50.802;7.132;2022-12-29T04:45:45;99690.47;;;12.53;100.00
9419;BME280;4748;50.802;7.132;2022-12-29T04:48:11;99705.28;;;12.56;100.00
9419;BME280;4748;50.802;7.132;2022-12-29T04:50:37;99706.91;;;12.57;100.00
9419;BME280;4748;50.802;7.132;2022-12-29T04:53:02;99725.19;;;12.60;100.00
9419;BME280;4748;50.802;7.132;2022-12-29T04:55:27;99721.44;;;12.61;100.00
9419;BME280;4748;50.802;7.132;2022-12-29T04:57:53;99711.69;;;12.50;100.00
9419;BME280;4748;50.802;7.132;2022-12-29T05:00:18;99727.81;;;12.55;100.00
9419;BME280;4748;50.802;7.132;2022-12-29T05:02:44;99727.34;;;12.63;100.00
9419;BME280;4748;50.802;7.132;2022-12-29T05:05:09;99729.78;;;12.64;100.00
9419;BME280;4748;50.802;7.132;2022-12-29T05:07:35;99735.22;;;12.69;100.00
9419;BME280;4748;50.802;7.132;2022-12-29T05:10:00;99716.91;;;12.66;100.00
9419;BME280;4748;50.802;7.132;2022-12-29T05:12:25;99730.38;;;12.71;100.00
9419;BME280;4748;50.802;7.132;2022-12-29T05:14:54;99728.72;;;12.65;100.00
9419;BME280;4748;50.802;7.132;2022-12-29T05:17:19;99725.22;;;12.65;100.00
9419;BME280;4748;50.802;7.132;2022-12-29T05:19:44;99728.47;;;12.67;100.00
9419;BME280;4748;50.802;7.132;2022-12-29T05:22:09;99738.28;;;12.56;100.00
9419;BME280;4748;50.802;7.132;2022-12-29T05:24:35;99734.25;;;12.54;100.00
9419;BME280;4748;50.802;7.132;2022-12-29T05:27:00;99749.00;;;12.51;100.00
9419;BME280;4748;50.802;7.132;2022-12-29T05:29:25;99746.22;;;12.41;100.00
9419;BME280;4748;50.802;7.132;2022-12-29T05:31:51;99751.31;;;12.38;100.00
9419;BME280;4748;50.802;7.132;2022-12-29T05:34:16;99758.78;;;12.36;100.00
9419;BME280;4748;50.802;7.132;2022-12-29T05:36:41;99759.28;;;12.33;100.00
9419;BME280;4748;50.802;7.132;2022-12-29T05:39:07;99757.09;;;12.30;100.00
9419;BME280;4748;50.802;7.132;2022-12-29T05:41:34;99766.72;;;12.26;100.00
9419;BME280;4748;50.802;7.132;2022-12-29T05:44:00;99770.78;;;12.28;100.00
9419;BME280;4748;50.802;7.132;2022-12-29T05:46:26;99775.91;;;12.30;100.00
9419;BME280;4748;50.802;7.132;2022-12-29T05:48:52;99764.16;;;12.36;100.00
9419;BME280;4748;50.802;7.132;2022-12-29T05:51:17;99763.63;;;12.39;100.00
9419;BME280;4748;50.802;7.132;2022-12-29T05:53:42;99765.25;;;12.40;100.00
9419;BME280;4748;50.802;7.132;2022-12-29T05:56:08;99771.19;;;12.42;100.00
9419;BME280;4748;50.802;7.132;2022-12-29T05:58:33;99774.44;;;12.44;100.00
9419;BME280;4748;50.802;7.132;2022-12-29T06:00:58;99768.50;;;12.42;100.00
9419;BME280;4748;50.802;7.132;2022-12-29T06:03:24;99759.84;;;12.35;100.00
9419;BME280;4748;50.802;7.132;2022-12-29T06:05:49;99760.03;;;12.28;100.00
9419;BME280;4748;50.802;7.132;2022-12-29T06:08:14;99769.91;;;12.23;100.00
9419;BME280;4748;50.802;7.132;2022-12-29T06:10:40;99758.88;;;12.20;100.00
9419;BME280;4748;50.802;7.132;2022-12-29T06:13:05;99758.00;;;12.14;100.00
9419;BME280;4748;50.802;7.132;2022-12-29T06:15:32;99746.59;;;12.02;100.00
9419;BME280;4748;50.802;7.132;2022-12-29T06:17:57;99755.72;;;12.01;100.00
9419;BME280;4748;50.802;7.132;2022-12-29T06:20:22;99750.09;;;12.03;100.00
9419;BME280;4748;50.802;7.132;2022-12-29T06:22:47;99751.97;;;12.02;100.00
9419;BME280;4748;50.802;7.132;2022-12-29T06:25:14;99760.50;;;11.99;100.00
9419;BME280;4748;50.802;7.132;2022-12-29T06:27:39;99769.88;;;11.97;100.00
9419;BME280;4748;50.802;7.132;2022-12-29T06:30:05;99775.25;;;11.97;100.00
9419;BME280;4748;50.802;7.132;2022-12-29T06:32:31;99767.94;;;11.92;100.00
9419;BME280;4748;50.802;7.132;2022-12-29T06:34:56;99752.66;;;11.93;100.00
9419;BME280;4748;50.802;7.132;2022-12-29T06:37:21;99763.16;;;11.94;100.00
9419;BME280;4748;50.802;7.132;2022-12-29T06:39:47;99763.06;;;11.89;100.00
9419;BME280;4748;50.802;7.132;2022-12-29T06:42:12;99751.22;;;11.85;100.00
9419;BME280;4748;50.802;7.132;2022-12-29T06:44:37;99751.72;;;11.82;100.00
9419;BME280;4748;50.802;7.132;2022-12-29T06:47:03;99752.84;;;11.86;100.00
9419;BME280;4748;50.802;7.132;2022-12-29T06:49:28;99757.72;;;11.89;100.00
9419;BME280;4748;50.802;7.132;2022-12-29T06:51:53;99760.84;;;11.81;100.00
9419;BME280;4748;50.802;7.132;2022-12-29T06:54:19;99787.97;;;11.85;100.00
9419;BME280;4748;50.802;7.132;2022-12-29T06:56:44;99794.13;;;11.85;100.00
9419;BME280;4748;50.802;7.132;2022-12-29T06:59:09;99784.78;;;11.88;100.00
9419;BME280;4748;50.802;7.132;2022-12-29T07:01:35;99788.59;;;11.92;100.00
9419;BME280;4748;50.802;7.132;2022-12-29T07:04:01;99786.97;;;11.91;100.00
9419;BME280;4748;50.802;7.132;2022-12-29T07:06:27;99787.41;;;12.04;100.00
9419;BME280;4748;50.802;7.132;2022-12-29T07:08:52;99791.69;;;12.05;100.00
9419;BME280;4748;50.802;7.132;2022-12-29T07:11:20;99792.78;;;12.04;100.00
9419;BME280;4748;50.802;7.132;2022-12-29T07:13:45;99791.94;;;12.04;100.00
9419;BME280;4748;50.802;7.132;2022-12-29T07:16:10;99792.91;;;12.14;100.00
9419;BME280;4748;50.802;7.132;2022-12-29T07:18:36;99800.69;;;12.16;100.00
9419;BME280;4748;50.802;7.132;2022-12-29T07:21:02;99790.47;;;12.13;100.00
9419;BME280;4748;50.802;7.132;2022-12-29T07:23:27;99796.13;;;12.16;100.00
9419;BME280;4748;50.802;7.132;2022-12-29T07:26:04;99817.59;;;12.16;100.00
9419;BME280;4748;50.802;7.132;2022-12-29T07:28:30;99820.84;;;12.18;100.00
9419;BME280;4748;50.802;7.132;2022-12-29T07:30:55;99839.06;;;12.16;100.00
9419;BME280;4748;50.802;7.132;2022-12-29T07:33:21;99837.16;;;12.17;100.00
9419;BME280;4748;50.802;7.132;2022-12-29T07:35:46;99844.44;;;12.16;100.00
9419;BME280;4748;50.802;7.132;2022-12-29T07:38:11;99846.56;;;12.14;100.00
9419;BME280;4748;50.802;7.132;2022-12-29T07:40:37;99854.53;;;12.09;100.00
9419;BME280;4748;50.802;7.132;2022-12-29T07:43:02;99852.97;;;12.13;100.00
9419;BME280;4748;50.802;7.132;2022-12-29T07:45:29;99864.59;;;12.19;100.00
9419;BME280;4748;50.802;7.132;2022-12-29T07:47:54;99864.88;;;12.22;100.00
9419;BME280;4748;50.802;7.132;2022-12-29T07:50:20;99868.66;;;12.21;100.00
9419;BME280;4748;50.802;7.132;2022-12-29T07:52:45;99871.34;;;12.21;100.00
9419;BME280;4748;50.802;7.132;2022-12-29T07:55:12;99871.84;;;12.18;100.00
9419;BME280;4748;50.802;7.132;2022-12-29T07:57:37;99876.97;;;12.20;100.00
9419;BME280;4748;50.802;7.132;2022-12-29T08:00:03;99883.91;;;12.21;100.00
9419;BME280;4748;50.802;7.132;2022-12-29T08:02:28;99890.91;;;12.22;100.00
9419;BME280;4748;50.802;7.132;2022-12-29T08:04:54;99894.66;;;12.21;100.00
9419;BME280;4748;50.802;7.132;2022-12-29T08:07:20;99896.28;;;12.22;100.00
9419;BME280;4748;50.802;7.132;2022-12-29T08:09:45;99899.53;;;12.23;100.00
9419;BME280;4748;50.802;7.132;2022-12-29T08:12:11;99893.59;;;12.22;100.00
9419;BME280;4748;50.802;7.132;2022-12-29T08:14:36;99901.66;;;12.22;100.00
9419;BME280;4748;50.802;7.132;2022-12-29T08:17:02;99910.00;;;12.25;100.00
9419;BME280;4748;50.802;7.132;2022-12-29T08:19:27;99911.09;;;12.24;100.00
9419;BME280;4748;50.802;7.132;2022-12-29T08:21:53;99911.09;;;12.24;100.00
9419;BME280;4748;50.802;7.132;2022-12-29T08:24:18;99905.22;;;12.27;100.00
9419;BME280;4748;50.802;7.132;2022-12-29T08:26:44;99906.34;;;12.31;100.00
9419;BME280;4748;50.802;7.132;2022-12-29T08:29:09;99896.41;;;12.31;100.00
9419;BME280;4748;50.802;7.132;2022-12-29T08:31:34;99904.72;;;12.30;100.00
9419;BME280;4748;50.802;7.132;2022-12-29T08:34:00;99909.28;;;12.29;100.00
9419;BME280;4748;50.802;7.132;2022-12-29T08:36:26;99916.59;;;12.34;100.00
9419;BME280;4748;50.802;7.132;2022-12-29T08:38:52;99915.72;;;12.28;100.00
9419;BME280;4748;50.802;7.132;2022-12-29T08:41:17;99920.56;;;12.31;100.00
9419;BME280;4748;50.802;7.132;2022-12-29T08:43:46;99924.63;;;12.34;100.00
9419;BME280;4748;50.802;7.132;2022-12-29T08:46:11;99920.81;;;12.30;100.00
9419;BME280;4748;50.802;7.132;2022-12-29T08:48:36;99918.94;;;12.30;100.00
9419;BME280;4748;50.802;7.132;2022-12-29T08:51:02;99927.56;;;12.32;100.00
9419;BME280;4748;50.802;7.132;2022-12-29T08:53:27;99924.00;;;12.27;100.00
9419;BME280;4748;50.802;7.132;2022-12-29T08:55:57;99925.84;;;12.26;100.00
9419;BME280;4748;50.802;7.132;2022-12-29T08:58:23;99916.97;;;12.21;100.00
9419;BME280;4748;50.802;7.132;2022-12-29T09:00:49;99923.13;;;12.22;100.00
9419;BME280;4748;50.802;7.132;2022-12-29T09:03:14;99928.50;;;12.22;100.00
9419;BME280;4748;50.802;7.132;2022-12-29T09:05:39;99939.47;;;12.20;100.00
9419;BME280;4748;50.802;7.132;2022-12-29T09:08:05;99953.94;;;12.19;100.00
9419;BME280;4748;50.802;7.132;2022-12-29T09:10:31;99946.72;;;12.20;100.00
9419;BME280;4748;50.802;7.132;2022-12-29T09:12:56;99956.13;;;12.22;100.00
9419;BME280;4748;50.802;7.132;2022-12-29T09:15:21;99957.75;;;12.23;100.00
9419;BME280;4748;50.802;7.132;2022-12-29T09:17:47;99960.44;;;12.23;100.00
9419;BME280;4748;50.802;7.132;2022-12-29T09:20:15;99972.22;;;12.22;100.00
9419;BME280;4748;50.802;7.132;2022-12-29T09:22:41;99971.72;;;12.25;100.00
9419;BME280;4748;50.802;7.132;2022-12-29T09:25:07;99972.56;;;12.25;100.00
9419;BME280;4748;50.802;7.132;2022-12-29T09:27:34;99981.66;;;12.24;100.00
9419;BME280;4748;50.802;7.132;2022-12-29T09:29:59;99984.09;;;12.26;100.00
9419;BME280;4748;50.802;7.132;2022-12-29T09:32:25;99985.50;;;12.28;100.00
9419;BME280;4748;50.802;7.132;2022-12-29T09:34:50;99989.47;;;12.26;100.00
9419;BME280;4748;50.802;7.132;2022-12-29T09:37:15;99994.69;;;12.32;100.00
9419;BME280;4748;50.802;7.132;2022-12-29T09:39:41;100008.91;;;12.33;100.00
9419;BME280;4748;50.802;7.132;2022-12-29T09:42:09;99994.44;;;12.34;100.00
9419;BME280;4748;50.802;7.132;2022-12-29T09:47:29;100001.97;;;12.37;100.00
9419;BME280;4748;50.802;7.132;2022-12-29T09:50:00;99998.72;;;12.35;100.00
9419;BME280;4748;50.802;7.132;2022-12-29T09:52:34;100002.78;;;12.37;100.00
9419;BME280;4748;50.802;7.132;2022-12-29T09:55:21;100012.47;;;12.38;100.00
9419;BME280;4748;50.802;7.132;2022-12-29T09:57:59;100012.78;;;12.42;100.00
9419;BME280;4748;50.802;7.132;2022-12-29T10:00:40;100015.56;;;12.47;100.00
9419;BME280;4748;50.802;7.132;2022-12-29T10:03:19;100010.72;;;12.49;100.00
9419;BME280;4748;50.802;7.132;2022-12-29T10:22:55;100020.16;;;12.68;100.00
9419;BME280;4748;50.802;7.132;2022-12-29T10:25:31;100015.88;;;12.72;100.00
9419;BME280;4748;50.802;7.132;2022-12-29T10:28:03;100022.38;;;12.75;100.00
9419;BME280;4748;50.802;7.132;2022-12-29T10:30:32;100019.78;;;12.80;100.00
9419;BME280;4748;50.802;7.132;2022-12-29T10:33:02;100013.31;;;12.81;100.00
9419;BME280;4748;50.802;7.132;2022-12-29T10:35:34;100012.84;;;12.84;100.00
9419;BME280;4748;50.802;7.132;2022-12-29T10:40:54;100010.28;;;12.94;100.00
9419;BME280;4748;50.802;7.132;2022-12-29T10:43:29;100006.00;;;12.93;100.00
9419;BME280;4748;50.802;7.132;2022-12-29T10:45:57;100018.03;;;12.91;100.00
9419;BME280;4748;50.802;7.132;2022-12-29T10:48:30;100016.28;;;13.01;100.00
9419;BME280;4748;50.802;7.132;2022-12-29T10:50:58;100015.84;;;13.09;100.00
9419;BME280;4748;50.802;7.132;2022-12-29T10:56:50;100023.41;;;13.12;100.00
9419;BME280;4748;50.802;7.132;2022-12-29T10:59:22;100023.44;;;13.17;100.00
9419;BME280;4748;50.802;7.132;2022-12-29T11:04:35;100022.16;;;13.20;100.00
9419;BME280;4748;50.802;7.132;2022-12-29T11:07:06;100010.97;;;13.27;100.00
9419;BME280;4748;50.802;7.132;2022-12-29T11:09:34;100017.75;;;13.35;100.00
9419;BME280;4748;50.802;7.132;2022-12-29T11:12:18;100022.00;;;13.31;100.00
9419;BME280;4748;50.802;7.132;2022-12-29T11:14:44;100027.22;;;13.42;100.00
9419;BME280;4748;50.802;7.132;2022-12-29T11:17:15;100015.69;;;13.42;100.00
9419;BME280;4748;50.802;7.132;2022-12-29T11:19:40;100035.13;;;13.49;100.00
9419;BME280;4748;50.802;7.132;2022-12-29T11:22:28;100019.53;;;13.51;100.00
9419;BME280;4748;50.802;7.132;2022-12-29T11:24:55;100027.16;;;13.59;100.00
9419;BME280;4748;50.802;7.132;2022-12-29T11:27:29;100028.00;;;13.64;100.00
9419;BME280;4748;50.802;7.132;2022-12-29T11:29:55;100025.06;;;13.66;100.00
9419;BME280;4748;50.802;7.132;2022-12-29T11:32:23;100030.13;;;13.62;100.00
9419;BME280;4748;50.802;7.132;2022-12-29T11:34:49;100029.41;;;13.72;100.00
9419;BME280;4748;50.802;7.132;2022-12-29T11:39:54;100040.56;;;13.85;100.00
9419;BME280;4748;50.802;7.132;2022-12-29T11:44:56;100038.72;;;13.90;100.00
9419;BME280;4748;50.802;7.132;2022-12-29T11:47:26;100044.09;;;13.85;100.00
9419;BME280;4748;50.802;7.132;2022-12-29T11:49:56;100045.50;;;13.98;100.00
9419;BME280;4748;50.802;7.132;2022-12-29T11:52:26;100059.22;;;13.96;100.00
9419;BME280;4748;50.802;7.132;2022-12-29T11:54:54;100051.72;;;13.98;100.00
9419;BME280;4748;50.802;7.132;2022-12-29T11:57:21;100050.53;;;13.84;100.00
9419;BME280;4748;50.802;7.132;2022-12-29T11:59:55;100058.06;;;13.82;100.00
9419;BME280;4748;50.802;7.132;2022-12-29T12:05:31;100057.63;;;13.69;100.00
9419;BME280;4748;50.802;7.132;2022-12-29T12:08:15;100061.16;;;13.70;100.00
9419;BME280;4748;50.802;7.132;2022-12-29T12:10:48;100066.53;;;13.70;100.00
9419;BME280;4748;50.802;7.132;2022-12-29T12:16:16;100076.63;;;13.58;100.00
9419;BME280;4748;50.802;7.132;2022-12-29T12:21:34;100060.34;;;13.43;100.00
9419;BME280;4748;50.802;7.132;2022-12-29T12:29:51;100076.59;;;13.31;100.00
9419;BME280;4748;50.802;7.132;2022-12-29T12:32:26;100083.28;;;13.29;100.00
9419;BME280;4748;50.802;7.132;2022-12-29T12:34:54;100093.47;;;13.27;100.00
9419;BME280;4748;50.802;7.132;2022-12-29T12:51:35;100096.03;;;13.17;100.00
9419;BME280;4748;50.802;7.132;2022-12-29T12:57:14;100093.97;;;13.24;100.00
9419;BME280;4748;50.802;7.132;2022-12-29T13:02:43;100102.22;;;13.18;100.00
9419;BME280;4748;50.802;7.132;2022-12-29T13:08:35;100105.69;;;13.13;100.00
9419;BME280;4748;50.802;7.132;2022-12-29T13:16:32;100109.03;;;13.25;100.00
9419;BME280;4748;50.802;7.132;2022-12-29T13:27:03;100109.53;;;13.22;100.00
9419;BME280;4748;50.802;7.132;2022-12-29T13:29:46;100096.53;;;13.14;100.00
9419;BME280;4748;50.802;7.132;2022-12-29T13:32:24;100106.09;;;13.05;100.00
9419;BME280;4748;50.802;7.132;2022-12-29T13:37:51;100108.28;;;13.08;100.00
9419;BME280;4748;50.802;7.132;2022-12-29T13:40:22;100118.41;;;13.01;100.00
9419;BME280;4748;50.802;7.132;2022-12-29T13:42:50;100113.34;;;13.05;100.00
9419;BME280;4748;50.802;7.132;2022-12-29T13:45:19;100123.28;;;13.04;100.00
9419;BME280;4748;50.802;7.132;2022-12-29T13:50:17;100117.44;;;12.91;100.00
9419;BME280;4748;50.802;7.132;2022-12-29T13:53:15;100115.03;;;12.89;100.00
9419;BME280;4748;50.802;7.132;2022-12-29T13:55:58;100121.03;;;12.80;100.00
9419;BME280;4748;50.802;7.132;2022-12-29T13:58:37;100116.00;;;12.83;100.00
9419;BME280;4748;50.802;7.132;2022-12-29T14:01:19;100127.31;;;12.85;100.00
9419;BME280;4748;50.802;7.132;2022-12-29T14:03:57;100126.00;;;12.88;100.00
9419;BME280;4748;50.802;7.132;2022-12-29T14:06:29;100128.81;;;12.81;100.00
9419;BME280;4748;50.802;7.132;2022-12-29T14:08:58;100134.88;;;12.88;100.00
9419;BME280;4748;50.802;7.132;2022-12-29T14:11:38;100129.00;;;12.91;100.00
9419;BME280;4748;50.802;7.132;2022-12-29T14:16:45;100124.97;;;12.89;100.00
9419;BME280;4748;50.802;7.132;2022-12-29T14:19:15;100123.97;;;12.95;100.00
9419;BME280;4748;50.802;7.132;2022-12-29T14:21:50;100132.91;;;13.00;100.00
9419;BME280;4748;50.802;7.132;2022-12-29T14:24:46;100134.53;;;13.01;100.00
9419;BME280;4748;50.802;7.132;2022-12-29T14:34:53;100145.63;;;12.88;100.00
9419;BME280;4748;50.802;7.132;2022-12-29T14:37:31;100146.13;;;12.85;100.00
9419;BME280;4748;50.802;7.132;2022-12-29T14:40:23;100141.47;;;12.81;100.00
9419;BME280;4748;50.802;7.132;2022-12-29T14:42:51;100158.81;;;12.73;100.00
9419;BME280;4748;50.802;7.132;2022-12-29T14:47:48;100158.66;;;12.47;100.00
9419;BME280;4748;50.802;7.132;2022-12-29T14:50:29;100164.19;;;12.41;100.00
9419;BME280;4748;50.802;7.132;2022-12-29T14:53:01;100160.44;;;12.25;100.00
9419;BME280;4748;50.802;7.132;2022-12-29T14:58:04;100173.91;;;12.14;100.00
9419;BME280;4748;50.802;7.132;2022-12-29T15:00:34;100171.06;;;12.04;100.00
9419;BME280;4748;50.802;7.132;2022-12-29T15:03:14;100176.91;;;12.01;100.00
9419;BME280;4748;50.802;7.132;2022-12-29T15:05:56;100185.31;;;11.93;100.00
9419;BME280;4748;50.802;7.132;2022-12-29T15:08:26;100185.69;;;11.97;100.00
9419;BME280;4748;50.802;7.132;2022-12-29T15:10:58;100195.00;;;11.94;100.00
9419;BME280;4748;50.802;7.132;2022-12-29T15:13:40;100205.88;;;11.88;100.00
9419;BME280;4748;50.802;7.132;2022-12-29T15:16:29;100211.59;;;11.91;100.00
9419;BME280;4748;50.802;7.132;2022-12-29T15:18:55;100205.53;;;11.84;100.00
9419;BME280;4748;50.802;7.132;2022-12-29T15:21:29;100203.34;;;11.81;100.00
9419;BME280;4748;50.802;7.132;2022-12-29T15:23:55;100217.03;;;11.69;100.00
9419;BME280;4748;50.802;7.132;2022-12-29T15:26:21;100218.91;;;11.57;100.00
9419;BME280;4748;50.802;7.132;2022-12-29T15:28:51;100209.63;;;11.48;100.00
9419;BME280;4748;50.802;7.132;2022-12-29T15:31:19;100193.84;;;11.40;100.00
9419;BME280;4748;50.802;7.132;2022-12-29T15:33:47;100191.78;;;11.30;100.00